Nickelsville, VA (24271)

11:25 AM EDT on August 23, 2014 (GMT -0400)
W4CSN, Nottingham | Change Station
CLOSE
Current Station
Personal Weather Station
Location: Gate City, VA
Elevation: 1309 ft
Nearby Weather Stations

Elev 1309 ft 36.63 °N, 82.52 °W | Updated 5 seconds ago

Overcast
Overcast
73.9 °F
Feels Like 73 °F
N
0.0
Wind Variable Wind from North

Today
High -- | Low -- °F
--% Chance of Precip.
Yesterday
High -- | Low -- °F
Precip. -- in
6:53 AM 8:10 PM
Waning Crescent, 3% visible
Pressure 30.14 in
Visibility 10.0 miles
Clouds Scattered Clouds 800 ft
Mostly Cloudy 1700 ft
Overcast 3800 ft
Heat Index 73 °F
Dew Point 69 °F
Humidity 84%
Rainfall 0.24 in
Snow Depth Not available.
UV 2 out of 12
Pollen 8.40 out of 12
Air Quality Not available.
Flu Activity Not available.
METAR KLNP 231515Z AUTO 32004KT 10SM SCT008 BKN017 OVC038 24/22 A3014 RMK AO2

More Conditions Fewer Conditions

Pressure 30.14 in
Visibility 10.0 miles
Clouds Scattered Clouds 800 ft
Mostly Cloudy 1700 ft
Overcast 3800 ft
Heat Index 73 °F
Dew Point 69 °F
Humidity 84%
Rainfall 0.24 in
Snow Depth Not available.
UV 2 out of 12
Pollen 8.40 out of 12
Air Quality Not available.
Flu Activity Not available.
METAR KLNP 231515Z AUTO 32004KT 10SM SCT008 BKN017 OVC038 24/22 A3014 RMK AO2

More Conditions Fewer Conditions

10-Day Weather Forecast

Almanac

Astronomy

Aug. 23, 2014 Rise Set
Actual Time 6:53 AM EDT 8:10 PM EDT
Civil Twilight 6:26 AM EDT 8:37 PM EDT
Nautical Twilight 5:54 AM EDT 9:09 PM EDT
Astronomical Twilight 5:20 AM EDT 9:43 PM EDT
Moon 5:09 AM EDT 6:54 PM EDT
Length of Visible Light 14h 10m
Length of Day
13h 17m
Tomorrow will be 2m 10s shorter.
Waning Crescent, 3% of the Moon is Illuminated
Today
Waning Crescent
Aug 25
New
Sep 2
First Quarter
Sep 8
Full
Sep 15
Last Quarter

Today's Extremes

State Highs State Lows

Community

WunderPhotos

Upload Photos

1,746,495 photos uploaded!

WunderBlogs® & News

By Dr. Jeff Masters
Director of Meteorology, Weather Underground
By Kari Strenfel
Meteorologist, Weather Underground
By Christopher C. Burt
Weather Historian, Weather Underground
August 23, 2014
August 23, 2014
August 23, 2014

Nearby

Snow Depth

Station Depth Elevation
No new snow has been reported.

Earthquake Activity

City Distance Mag. Time & Date
No recent earthquake activity has been reported nearby.
Minimum magnitude displayed is 2.5.

Coastal Water Temperatures

Place Temperature
No Stations Reporting

Nearby Weather Stations